Flight Track Log - Related Links

Times and Time Zones

All times are in EDT time to prevent confusion due to time zone crossing. See the SWA118 flight status page for this flight to view local times or setup timezone preferences in your user account.

Time Position Orientation Groundspeed Altitude Reporting Facility
EDT Latitude Longitude Course Direction KTS MPH feet Rate Location/Type
Tue 06:19:51 PM 41.7833 -87.7833 282° West 169 194 2,100  Level Chicago TRACON
Tue 06:20:57 PM 41.7667 -87.8833 257° West 255 293 4,000 1,009 Climbing Chicago TRACON
Tue 06:21:44 PM 41.7594 -87.9431 261° West 260 299 4,000  Level Chicago Center
Tue 06:22:46 PM 41.7658 -88.0386 275° West 268 308 4,000 823 Level Chicago Center
Tue 06:23:48 PM 41.7872 -88.1314 287° West 265 305 5,700 3,290 Climbing Chicago Center
Tue 06:24:50 PM 41.8058 -88.2411 283° West 254 292 10,800 3,145 Climbing Chicago Center
Tue 06:25:00 PM 41.8847 -88.3836 282° West  Level FlightAware Approximate
Tue 06:25:52 PM 41.8111 -88.3367 274° West 259 298 12,200  Level Chicago Center
Tue 06:26:54 PM 41.8164 -88.4361 274° West 269 310 14,600 2,468 Climbing Chicago Center
Tue 06:27:56 PM 41.8011 -88.5514 260° West 318 366 17,300 2,806 Climbing Chicago Center
Tue 06:28:58 PM 41.7747 -88.6708 254° West 335 386 20,400 2,758 Climbing Chicago Center
Tue 06:30:00 PM 41.7439 -88.8131 254° West 334 384 23,000 1,645 Climbing Chicago Center
Tue 06:31:02 PM 41.7164 -88.9336 253° West 340 391 23,800 1,452 Climbing Chicago Center
Tue 06:32:04 PM 41.6889 -89.0581 254° West 349 402 26,000 1,935 Climbing Chicago Center
Tue 06:33:06 PM 41.6592 -89.1869 253° West 363 418 27,800 1,887 Climbing Chicago Center
Tue 06:34:08 PM 41.6297 -89.3225 254° West 379 436 29,900 2,371 Climbing Chicago Center
Tue 06:35:10 PM 41.5911 -89.4764 252° West 370 426 32,700 2,323 Climbing Chicago Center
Tue 06:36:12 PM 41.5442 -89.5883 241° Southwest 358 412 34,700 1,597 Climbing Chicago Center
Tue 06:37:14 PM 41.4961 -89.7022 241° Southwest 354 407 36,000 629 Climbing Chicago Center
Tue 06:38:16 PM 41.4500 -89.8153 241° Southwest 350 403 36,000  Level Chicago Center
Tue 06:39:18 PM 41.4031 -89.9286 241° Southwest 352 405 36,000  Level Chicago Center
Tue 06:40:20 PM 41.3472 -90.0603 241° Southwest 345 397 36,000  Level Chicago Center
Tue 06:41:22 PM 41.2997 -90.1719 241° Southwest 345 397 36,000  Level Chicago Center
Tue 06:42:23 PM 41.2525 -90.2839 241° Southwest 347 399 36,000  Level Chicago Center
Tue 06:43:25 PM 41.2053 -90.3953 241° Southwest 347 399 36,000  Level Chicago Center
Tue 06:44:27 PM 41.1581 -90.5061 241° Southwest 346 398 36,000  Level Chicago Center
Tue 06:45:29 PM 41.1097 -90.6158 240° Southwest 345 397 36,000  Level Chicago Center
Tue 06:46:31 PM 41.0533 -90.7492 241° Southwest 346 398 36,000  Level Chicago Center
Tue 06:47:33 PM 41.0058 -90.8586 240° Southwest 345 397 36,000  Level Chicago Center
Tue 06:48:35 PM 40.9575 -90.9678 240° Southwest 344 396 36,000  Level Chicago Center
Tue 06:49:37 PM 40.9106 -91.0767 240° Southwest 343 395 36,000  Level Chicago Center
Tue 06:50:39 PM 40.8633 -91.1864 240° Southwest 344 396 36,000  Level Chicago Center
Tue 06:51:41 PM 40.8092 -91.3086 240° Southwest 342 394 36,000  Level Chicago Center
Tue 06:52:43 PM 40.7619 -91.4164 240° Southwest 341 392 36,000  Level Chicago Center
Tue 06:53:45 PM 40.7142 -91.5239 240° Southwest 343 395 36,000  Level Chicago Center
Tue 06:54:47 PM 40.6661 -91.6319 240° Southwest 344 396 36,000  Level Chicago Center
Tue 06:55:49 PM 40.6086 -91.7617 240° Southwest 344 396 36,000  Level Chicago Center
Tue 06:56:06 PM 40.5972 -91.7825 234° Southwest 345 397 36,000  Level Kansas City Center
Tue 06:57:06 PM 40.5500 -91.8903 240° Southwest 343 395 36,000 -387 Level Kansas City Center
Tue 06:58:10 PM 40.5017 -91.9964 239° Southwest 342 394 35,200 -871 Descending Kansas City Center
Tue 06:59:10 PM 40.4558 -92.1000 240° Southwest 334 384 34,200 -942 Descending Kansas City Center
Tue 07:00:11 PM 40.4086 -92.2036 239° Southwest 332 382 33,300 -1,008 Descending Kansas City Center
Tue 07:01:15 PM 40.3508 -92.3314 239° Southwest 339 390 32,100 -1,008 Descending Kansas City Center
Tue 07:02:16 PM 40.3006 -92.4408 239° Southwest 345 397 31,200 -919 Descending Kansas City Center
Tue 07:03:19 PM 40.2528 -92.5458 239° Southwest 349 402 30,200 -1,016 Descending Kansas City Center
Tue 07:04:20 PM 40.1972 -92.6667 239° Southwest 348 400 29,100 -1,016 Descending Kansas City Center
Tue 07:05:23 PM 40.1497 -92.7678 238° Southwest 343 395 28,100 -1,024 Descending Kansas City Center
Tue 07:06:23 PM 40.0964 -92.8853 239° Southwest 338 389 27,000 -968 Descending Kansas City Center
Tue 07:07:27 PM 40.0531 -92.9769 238° Southwest 334 384 26,100 -919 Descending Kansas City Center
Tue 07:08:27 PM 40.0050 -93.0767 238° Southwest 328 377 25,100 -1,113 Descending Kansas City Center
Tue 07:09:31 PM 39.9506 -93.1961 239° Southwest 322 371 23,800 -1,008 Descending Kansas City Center
Tue 07:10:32 PM 39.9050 -93.2933 239° Southwest 318 366 23,000 -397 Descending Kansas City Center
Tue 07:11:32 PM 39.8597 -93.3889 238° Southwest 314 361 23,000  Level Kansas City Center
Tue 07:12:36 PM 39.8144 -93.4836 238° Southwest 312 359 23,000  Level Kansas City Center
Tue 07:13:37 PM 39.7694 -93.5778 238° Southwest 310 357 23,000  Level Kansas City Center
Tue 07:14:40 PM 39.7161 -93.6950 239° Southwest 314 361 23,000 -48 Level Kansas City Center
Tue 07:15:41 PM 39.6697 -93.7914 238° Southwest 314 361 22,900 -1,033 Descending Kansas City Center
Tue 07:16:42 PM 39.6275 -93.8803 238° Southwest 303 349 20,900 -2,177 Descending Kansas City Center
Tue 07:17:45 PM 39.5772 -93.9814 237° Southwest 297 342 18,400 -2,177 Descending Kansas City Center
Tue 07:18:46 PM 39.5336 -94.0681 237° Southwest 301 346 16,400 -2,177 Descending Kansas City Center
Tue 07:19:49 PM 39.4839 -94.1675 237° Southwest 295 339 13,900 -2,129 Descending Kansas City Center
Tue 07:20:50 PM 39.4389 -94.2544 236° Southwest 303 349 12,000 -912 Descending Kansas City Center
Tue 07:21:54 PM 39.3981 -94.3350 237° Southwest 282 325 12,000  Level Kansas City Center
Tue 07:22:55 PM 39.3539 -94.4222 237° Southwest 262 302 12,000 -732 Level Kansas City Center
Tue 07:23:57 PM 39.3156 -94.4967 236° Southwest 260 299 10,500 -1,707 Descending Kansas City Center
Tue 07:24:58 PM 39.2711 -94.5842 237° Southwest 260 299 8,500 -1,366 Descending Kansas City Center
Tue 07:26:00 PM 39.2142 -94.6189 205° Southwest 245 282 7,700 -1,161 Descending Kansas City Center
Tue 07:27:02 PM 39.1406 -94.6361 190° South 239 275 6,100 -1,073 Descending Kansas City Center
Tue 07:28:03 PM 39.0867 -94.6656 203° Southwest 227 261 5,500 -885 Descending Kansas City Center
Tue 07:29:04 PM 39.0919 -94.7450 275° West 199 229 4,300 -968 Descending Kansas City Center
Tue 07:30:07 PM 39.1300 -94.7536 350° North 155 178 3,500 -634 Descending Kansas City Center
Tue 07:31:07 PM 39.1681 -94.7428 12° North 147 169 3,000 -484 Descending Kansas City Center
Tue 07:32:11 PM 39.2125 -94.7300 13° North 145 167 2,500 -576 Descending Kansas City Center
Tue 07:33:12 PM 39.2481 -94.7200 12° North 138 159 1,800 -726 Descending Kansas City Center
Tue 07:34:15 PM 39.2858 -94.7094 12° North 127 146 1,000 -762 Descending Kansas City Center

Login

Don't have an account? Register now (free) for customized features, flight alerts, and more!